sensor_id;sensor_type;location;lat;lon;timestamp;P1;durP1;ratioP1;P2;durP2;ratioP2
7517;SDS011;3800;48.922;9.444;2023-05-07T00:00:32;4.93;;;2.70;;
7517;SDS011;3800;48.922;9.444;2023-05-07T00:03:01;2.97;;;2.77;;
7517;SDS011;3800;48.922;9.444;2023-05-07T00:05:30;3.47;;;3.00;;
7517;SDS011;3800;48.922;9.444;2023-05-07T00:07:58;3.40;;;3.10;;
7517;SDS011;3800;48.922;9.444;2023-05-07T00:10:26;4.27;;;2.90;;
7517;SDS011;3800;48.922;9.444;2023-05-07T00:12:55;3.53;;;2.93;;
7517;SDS011;3800;48.922;9.444;2023-05-07T00:15:24;3.40;;;3.10;;
7517;SDS011;3800;48.922;9.444;2023-05-07T00:17:53;4.47;;;2.87;;
7517;SDS011;3800;48.922;9.444;2023-05-07T00:20:22;3.30;;;3.00;;
7517;SDS011;3800;48.922;9.444;2023-05-07T00:22:50;3.53;;;2.53;;
7517;SDS011;3800;48.922;9.444;2023-05-07T00:25:18;3.17;;;2.87;;
7517;SDS011;3800;48.922;9.444;2023-05-07T00:27:47;4.60;;;2.90;;
7517;SDS011;3800;48.922;9.444;2023-05-07T00:30:15;3.57;;;2.80;;
7517;SDS011;3800;48.922;9.444;2023-05-07T00:32:43;3.00;;;2.70;;
7517;SDS011;3800;48.922;9.444;2023-05-07T00:35:12;3.70;;;2.80;;
7517;SDS011;3800;48.922;9.444;2023-05-07T00:37:41;3.13;;;2.80;;
7517;SDS011;3800;48.922;9.444;2023-05-07T00:40:09;4.53;;;2.83;;
7517;SDS011;3800;48.922;9.444;2023-05-07T00:42:38;4.70;;;2.67;;
7517;SDS011;3800;48.922;9.444;2023-05-07T00:45:07;5.67;;;3.07;;
7517;SDS011;3800;48.922;9.444;2023-05-07T00:47:35;3.27;;;2.83;;
7517;SDS011;3800;48.922;9.444;2023-05-07T00:50:04;3.00;;;2.70;;
7517;SDS011;3800;48.922;9.444;2023-05-07T00:52:33;2.90;;;2.70;;
7517;SDS011;3800;48.922;9.444;2023-05-07T00:55:04;3.90;;;3.17;;
7517;SDS011;3800;48.922;9.444;2023-05-07T00:57:33;3.47;;;2.90;;
7517;SDS011;3800;48.922;9.444;2023-05-07T01:00:00;3.60;;;2.60;;
7517;SDS011;3800;48.922;9.444;2023-05-07T01:02:28;3.33;;;3.03;;
7517;SDS011;3800;48.922;9.444;2023-05-07T01:04:57;3.37;;;2.77;;
7517;SDS011;3800;48.922;9.444;2023-05-07T01:07:25;3.20;;;2.50;;
7517;SDS011;3800;48.922;9.444;2023-05-07T01:09:53;3.33;;;2.80;;
7517;SDS011;3800;48.922;9.444;2023-05-07T01:12:23;2.77;;;2.57;;
7517;SDS011;3800;48.922;9.444;2023-05-07T01:14:51;4.43;;;2.90;;
7517;SDS011;3800;48.922;9.444;2023-05-07T01:17:19;3.90;;;3.13;;
7517;SDS011;3800;48.922;9.444;2023-05-07T01:19:48;3.43;;;2.60;;
7517;SDS011;3800;48.922;9.444;2023-05-07T01:22:16;3.10;;;2.80;;
7517;SDS011;3800;48.922;9.444;2023-05-07T01:24:46;4.20;;;2.60;;
7517;SDS011;3800;48.922;9.444;2023-05-07T01:27:14;2.70;;;2.50;;
7517;SDS011;3800;48.922;9.444;2023-05-07T01:29:43;4.40;;;3.13;;
7517;SDS011;3800;48.922;9.444;2023-05-07T01:32:11;5.30;;;3.43;;
7517;SDS011;3800;48.922;9.444;2023-05-07T01:34:39;3.53;;;2.80;;
7517;SDS011;3800;48.922;9.444;2023-05-07T01:37:07;3.10;;;2.80;;
7517;SDS011;3800;48.922;9.444;2023-05-07T01:39:37;2.93;;;2.67;;
7517;SDS011;3800;48.922;9.444;2023-05-07T01:42:05;6.03;;;2.60;;
7517;SDS011;3800;48.922;9.444;2023-05-07T01:44:33;3.07;;;2.77;;
7517;SDS011;3800;48.922;9.444;2023-05-07T01:47:02;4.60;;;2.80;;
7517;SDS011;3800;48.922;9.444;2023-05-07T01:49:30;3.03;;;2.73;;
7517;SDS011;3800;48.922;9.444;2023-05-07T01:51:58;4.20;;;2.60;;
7517;SDS011;3800;48.922;9.444;2023-05-07T01:54:26;3.03;;;2.60;;
7517;SDS011;3800;48.922;9.444;2023-05-07T01:56:56;2.90;;;2.60;;
7517;SDS011;3800;48.922;9.444;2023-05-07T01:59:25;3.97;;;2.90;;
7517;SDS011;3800;48.922;9.444;2023-05-07T02:01:53;3.27;;;2.83;;
7517;SDS011;3800;48.922;9.444;2023-05-07T02:04:21;3.70;;;3.00;;
7517;SDS011;3800;48.922;9.444;2023-05-07T02:06:50;3.53;;;2.60;;
7517;SDS011;3800;48.922;9.444;2023-05-07T02:09:18;5.13;;;2.80;;
7517;SDS011;3800;48.922;9.444;2023-05-07T02:11:47;3.30;;;3.00;;
7517;SDS011;3800;48.922;9.444;2023-05-07T02:14:16;3.43;;;3.13;;
7517;SDS011;3800;48.922;9.444;2023-05-07T02:16:45;3.97;;;3.10;;
7517;SDS011;3800;48.922;9.444;2023-05-07T02:19:13;3.97;;;3.50;;
7517;SDS011;3800;48.922;9.444;2023-05-07T02:21:41;4.27;;;3.10;;
7517;SDS011;3800;48.922;9.444;2023-05-07T02:24:09;4.23;;;3.53;;
7517;SDS011;3800;48.922;9.444;2023-05-07T02:26:38;4.23;;;3.60;;
7517;SDS011;3800;48.922;9.444;2023-05-07T02:29:07;4.53;;;3.57;;
7517;SDS011;3800;48.922;9.444;2023-05-07T02:31:35;3.57;;;3.10;;
7517;SDS011;3800;48.922;9.444;2023-05-07T02:34:03;3.93;;;3.57;;
7517;SDS011;3800;48.922;9.444;2023-05-07T02:36:31;3.90;;;3.50;;
7517;SDS011;3800;48.922;9.444;2023-05-07T02:39:00;4.20;;;3.43;;
7517;SDS011;3800;48.922;9.444;2023-05-07T02:41:28;4.03;;;3.60;;
7517;SDS011;3800;48.922;9.444;2023-05-07T02:43:56;4.33;;;3.93;;
7517;SDS011;3800;48.922;9.444;2023-05-07T02:46:25;4.93;;;3.67;;
7517;SDS011;3800;48.922;9.444;2023-05-07T02:48:54;4.90;;;3.50;;
7517;SDS011;3800;48.922;9.444;2023-05-07T02:51:23;3.23;;;2.77;;
7517;SDS011;3800;48.922;9.444;2023-05-07T02:53:52;3.83;;;3.10;;
7517;SDS011;3800;48.922;9.444;2023-05-07T02:56:20;4.43;;;3.27;;
7517;SDS011;3800;48.922;9.444;2023-05-07T02:58:48;3.73;;;3.03;;
7517;SDS011;3800;48.922;9.444;2023-05-07T03:01:16;3.87;;;3.13;;
7517;SDS011;3800;48.922;9.444;2023-05-07T03:03:45;3.17;;;2.83;;
7517;SDS011;3800;48.922;9.444;2023-05-07T03:06:13;4.30;;;3.30;;
7517;SDS011;3800;48.922;9.444;2023-05-07T03:08:41;4.37;;;3.37;;
7517;SDS011;3800;48.922;9.444;2023-05-07T03:11:10;3.67;;;3.10;;
7517;SDS011;3800;48.922;9.444;2023-05-07T03:13:40;3.40;;;3.10;;
7517;SDS011;3800;48.922;9.444;2023-05-07T03:16:08;3.57;;;3.23;;
7517;SDS011;3800;48.922;9.444;2023-05-07T03:18:37;3.20;;;2.90;;
7517;SDS011;3800;48.922;9.444;2023-05-07T03:21:06;3.20;;;2.90;;
7517;SDS011;3800;48.922;9.444;2023-05-07T03:23:34;3.90;;;3.07;;
7517;SDS011;3800;48.922;9.444;2023-05-07T03:26:03;4.47;;;3.27;;
7517;SDS011;3800;48.922;9.444;2023-05-07T03:28:31;4.37;;;3.30;;
7517;SDS011;3800;48.922;9.444;2023-05-07T03:31:00;5.13;;;3.40;;
7517;SDS011;3800;48.922;9.444;2023-05-07T03:33:28;3.57;;;3.27;;
7517;SDS011;3800;48.922;9.444;2023-05-07T03:35:57;3.60;;;3.13;;
7517;SDS011;3800;48.922;9.444;2023-05-07T03:38:25;4.37;;;3.10;;
7517;SDS011;3800;48.922;9.444;2023-05-07T03:40:54;5.17;;;3.80;;
7517;SDS011;3800;48.922;9.444;2023-05-07T03:43:23;3.23;;;2.93;;
7517;SDS011;3800;48.922;9.444;2023-05-07T03:45:51;4.13;;;3.73;;
7517;SDS011;3800;48.922;9.444;2023-05-07T03:48:20;3.80;;;3.40;;
7517;SDS011;3800;48.922;9.444;2023-05-07T03:50:48;5.40;;;3.20;;
7517;SDS011;3800;48.922;9.444;2023-05-07T03:53:17;5.37;;;3.13;;
7517;SDS011;3800;48.922;9.444;2023-05-07T03:55:45;3.17;;;2.87;;
7517;SDS011;3800;48.922;9.444;2023-05-07T03:58:14;3.40;;;3.10;;
7517;SDS011;3800;48.922;9.444;2023-05-07T04:00:43;3.67;;;2.80;;
7517;SDS011;3800;48.922;9.444;2023-05-07T04:03:12;3.30;;;2.93;;
7517;SDS011;3800;48.922;9.444;2023-05-07T04:05:40;4.43;;;3.00;;
7517;SDS011;3800;48.922;9.444;2023-05-07T04:08:08;3.20;;;2.90;;
7517;SDS011;3800;48.922;9.444;2023-05-07T04:10:36;3.60;;;3.30;;
7517;SDS011;3800;48.922;9.444;2023-05-07T04:13:05;5.07;;;3.30;;
7517;SDS011;3800;48.922;9.444;2023-05-07T04:15:33;5.87;;;3.43;;
7517;SDS011;3800;48.922;9.444;2023-05-07T04:18:01;3.30;;;3.00;;
7517;SDS011;3800;48.922;9.444;2023-05-07T04:20:29;3.60;;;3.30;;
7517;SDS011;3800;48.922;9.444;2023-05-07T04:22:58;3.97;;;2.90;;
7517;SDS011;3800;48.922;9.444;2023-05-07T04:25:27;4.80;;;3.07;;
7517;SDS011;3800;48.922;9.444;2023-05-07T04:27:55;3.47;;;2.93;;
7517;SDS011;3800;48.922;9.444;2023-05-07T04:30:24;3.50;;;3.20;;
7517;SDS011;3800;48.922;9.444;2023-05-07T04:32:52;4.47;;;2.83;;
7517;SDS011;3800;48.922;9.444;2023-05-07T04:35:20;3.87;;;3.17;;
7517;SDS011;3800;48.922;9.444;2023-05-07T04:37:49;3.70;;;3.17;;
7517;SDS011;3800;48.922;9.444;2023-05-07T04:40:18;3.40;;;3.10;;
7517;SDS011;3800;48.922;9.444;2023-05-07T04:42:47;4.63;;;3.30;;
7517;SDS011;3800;48.922;9.444;2023-05-07T04:45:15;5.13;;;3.07;;
7517;SDS011;3800;48.922;9.444;2023-05-07T04:47:43;3.17;;;2.87;;
7517;SDS011;3800;48.922;9.444;2023-05-07T04:50:12;4.57;;;3.07;;
7517;SDS011;3800;48.922;9.444;2023-05-07T04:52:41;3.23;;;2.93;;
7517;SDS011;3800;48.922;9.444;2023-05-07T04:55:10;3.23;;;2.93;;
7517;SDS011;3800;48.922;9.444;2023-05-07T04:57:38;5.13;;;2.90;;
7517;SDS011;3800;48.922;9.444;2023-05-07T05:00:07;3.00;;;2.70;;
7517;SDS011;3800;48.922;9.444;2023-05-07T05:02:36;3.07;;;2.70;;
7517;SDS011;3800;48.922;9.444;2023-05-07T05:05:04;4.50;;;3.13;;
7517;SDS011;3800;48.922;9.444;2023-05-07T05:07:33;4.00;;;3.03;;
7517;SDS011;3800;48.922;9.444;2023-05-07T05:10:01;4.17;;;3.10;;
7517;SDS011;3800;48.922;9.444;2023-05-07T05:12:29;4.60;;;3.10;;
7517;SDS011;3800;48.922;9.444;2023-05-07T05:14:58;3.60;;;3.30;;
7517;SDS011;3800;48.922;9.444;2023-05-07T05:17:27;4.30;;;3.33;;
7517;SDS011;3800;48.922;9.444;2023-05-07T05:19:56;3.10;;;2.83;;
7517;SDS011;3800;48.922;9.444;2023-05-07T05:22:24;3.40;;;3.10;;
7517;SDS011;3800;48.922;9.444;2023-05-07T05:24:52;4.97;;;3.10;;
7517;SDS011;3800;48.922;9.444;2023-05-07T05:27:20;3.97;;;3.13;;
7517;SDS011;3800;48.922;9.444;2023-05-07T05:29:49;3.57;;;3.20;;
7517;SDS011;3800;48.922;9.444;2023-05-07T05:32:17;4.00;;;2.90;;
7517;SDS011;3800;48.922;9.444;2023-05-07T05:34:45;3.40;;;3.10;;
7517;SDS011;3800;48.922;9.444;2023-05-07T05:37:14;3.27;;;2.97;;
7517;SDS011;3800;48.922;9.444;2023-05-07T05:39:43;3.87;;;3.27;;
7517;SDS011;3800;48.922;9.444;2023-05-07T05:42:11;3.63;;;3.33;;
7517;SDS011;3800;48.922;9.444;2023-05-07T05:44:39;5.93;;;3.20;;
7517;SDS011;3800;48.922;9.444;2023-05-07T05:47:07;3.83;;;3.30;;
7517;SDS011;3800;48.922;9.444;2023-05-07T05:49:36;3.40;;;3.10;;
7517;SDS011;3800;48.922;9.444;2023-05-07T05:52:04;3.47;;;3.17;;
7517;SDS011;3800;48.922;9.444;2023-05-07T05:54:32;3.90;;;3.00;;
7517;SDS011;3800;48.922;9.444;2023-05-07T05:57:01;4.13;;;3.13;;
7517;SDS011;3800;48.922;9.444;2023-05-07T05:59:29;4.40;;;3.30;;
7517;SDS011;3800;48.922;9.444;2023-05-07T06:01:58;8.73;;;3.37;;
7517;SDS011;3800;48.922;9.444;2023-05-07T06:04:26;3.73;;;3.23;;
7517;SDS011;3800;48.922;9.444;2023-05-07T06:06:54;3.93;;;3.53;;
7517;SDS011;3800;48.922;9.444;2023-05-07T06:09:22;3.47;;;3.07;;
7517;SDS011;3800;48.922;9.444;2023-05-07T06:11:51;3.23;;;2.97;;
7517;SDS011;3800;48.922;9.444;2023-05-07T06:14:19;3.83;;;3.43;;
7517;SDS011;3800;48.922;9.444;2023-05-07T06:16:48;3.27;;;2.97;;
7517;SDS011;3800;48.922;9.444;2023-05-07T06:19:16;3.33;;;3.03;;
7517;SDS011;3800;48.922;9.444;2023-05-07T06:21:45;3.77;;;2.97;;
7517;SDS011;3800;48.922;9.444;2023-05-07T06:24:13;3.93;;;3.13;;
7517;SDS011;3800;48.922;9.444;2023-05-07T06:26:41;3.27;;;2.97;;
7517;SDS011;3800;48.922;9.444;2023-05-07T06:29:09;3.30;;;3.00;;
7517;SDS011;3800;48.922;9.444;2023-05-07T06:31:38;4.17;;;3.23;;
7517;SDS011;3800;48.922;9.444;2023-05-07T06:34:06;3.60;;;3.30;;
7517;SDS011;3800;48.922;9.444;2023-05-07T06:36:34;5.90;;;4.10;;
7517;SDS011;3800;48.922;9.444;2023-05-07T06:39:02;4.53;;;3.80;;
7517;SDS011;3800;48.922;9.444;2023-05-07T06:41:32;5.17;;;3.33;;
7517;SDS011;3800;48.922;9.444;2023-05-07T06:44:00;3.60;;;3.30;;
7517;SDS011;3800;48.922;9.444;2023-05-07T06:46:28;5.80;;;3.20;;
7517;SDS011;3800;48.922;9.444;2023-05-07T06:48:56;3.30;;;3.00;;
7517;SDS011;3800;48.922;9.444;2023-05-07T06:51:25;3.47;;;3.07;;
7517;SDS011;3800;48.922;9.444;2023-05-07T06:53:53;3.83;;;3.30;;
7517;SDS011;3800;48.922;9.444;2023-05-07T06:56:21;3.77;;;3.40;;
7517;SDS011;3800;48.922;9.444;2023-05-07T06:58:50;3.60;;;3.30;;
7517;SDS011;3800;48.922;9.444;2023-05-07T07:01:18;3.83;;;3.23;;
7517;SDS011;3800;48.922;9.444;2023-05-07T07:03:47;3.93;;;3.43;;
7517;SDS011;3800;48.922;9.444;2023-05-07T07:06:15;3.67;;;3.37;;
7517;SDS011;3800;48.922;9.444;2023-05-07T07:08:43;5.60;;;3.33;;
7517;SDS011;3800;48.922;9.444;2023-05-07T07:11:11;4.13;;;3.30;;
7517;SDS011;3800;48.922;9.444;2023-05-07T07:13:40;4.00;;;3.00;;
7517;SDS011;3800;48.922;9.444;2023-05-07T07:16:10;3.93;;;2.93;;
7517;SDS011;3800;48.922;9.444;2023-05-07T07:18:38;2.80;;;2.60;;
7517;SDS011;3800;48.922;9.444;2023-05-07T07:21:06;3.33;;;2.70;;
7517;SDS011;3800;48.922;9.444;2023-05-07T07:23:35;3.43;;;2.90;;
7517;SDS011;3800;48.922;9.444;2023-05-07T07:26:03;3.00;;;2.70;;
7517;SDS011;3800;48.922;9.444;2023-05-07T07:28:32;3.63;;;2.10;;
7517;SDS011;3800;48.922;9.444;2023-05-07T07:31:00;4.47;;;2.50;;
7517;SDS011;3800;48.922;9.444;2023-05-07T07:33:28;3.57;;;2.07;;
7517;SDS011;3800;48.922;9.444;2023-05-07T07:35:56;2.13;;;1.93;;
7517;SDS011;3800;48.922;9.444;2023-05-07T07:38:25;3.07;;;2.00;;
7517;SDS011;3800;48.922;9.444;2023-05-07T07:40:54;2.60;;;1.80;;
7517;SDS011;3800;48.922;9.444;2023-05-07T07:43:22;2.33;;;2.10;;
7517;SDS011;3800;48.922;9.444;2023-05-07T07:45:51;2.67;;;1.90;;
7517;SDS011;3800;48.922;9.444;2023-05-07T07:48:19;1.90;;;1.70;;
7517;SDS011;3800;48.922;9.444;2023-05-07T07:50:49;2.80;;;1.80;;
7517;SDS011;3800;48.922;9.444;2023-05-07T07:53:17;3.00;;;1.93;;
7517;SDS011;3800;48.922;9.444;2023-05-07T07:55:45;2.33;;;1.87;;
7517;SDS011;3800;48.922;9.444;2023-05-07T07:58:13;3.00;;;2.00;;
7517;SDS011;3800;48.922;9.444;2023-05-07T08:00:41;3.17;;;1.90;;
7517;SDS011;3800;48.922;9.444;2023-05-07T08:03:10;3.17;;;1.70;;
7517;SDS011;3800;48.922;9.444;2023-05-07T08:05:38;2.20;;;1.73;;
7517;SDS011;3800;48.922;9.444;2023-05-07T08:08:07;2.80;;;1.70;;
7517;SDS011;3800;48.922;9.444;2023-05-07T08:10:35;2.40;;;1.90;;
7517;SDS011;3800;48.922;9.444;2023-05-07T08:13:03;2.97;;;1.80;;
7517;SDS011;3800;48.922;9.444;2023-05-07T08:15:31;2.10;;;1.90;;
7517;SDS011;3800;48.922;9.444;2023-05-07T08:18:00;2.93;;;2.00;;
7517;SDS011;3800;48.922;9.444;2023-05-07T08:20:28;2.53;;;1.93;;
7517;SDS011;3800;48.922;9.444;2023-05-07T08:22:56;3.13;;;2.40;;
7517;SDS011;3800;48.922;9.444;2023-05-07T08:25:25;3.10;;;2.20;;
7517;SDS011;3800;48.922;9.444;2023-05-07T08:27:54;2.30;;;2.10;;
7517;SDS011;3800;48.922;9.444;2023-05-07T08:30:22;2.57;;;2.10;;
7517;SDS011;3800;48.922;9.444;2023-05-07T08:32:50;2.63;;;1.70;;
7517;SDS011;3800;48.922;9.444;2023-05-07T08:35:18;2.37;;;1.93;;
7517;SDS011;3800;48.922;9.444;2023-05-07T08:37:47;3.27;;;2.10;;
7517;SDS011;3800;48.922;9.444;2023-05-07T08:40:15;1.93;;;1.70;;
7517;SDS011;3800;48.922;9.444;2023-05-07T08:42:43;2.13;;;1.80;;
7517;SDS011;3800;48.922;9.444;2023-05-07T08:45:12;3.10;;;1.73;;
7517;SDS011;3800;48.922;9.444;2023-05-07T08:47:43;2.83;;;1.90;;
7517;SDS011;3800;48.922;9.444;2023-05-07T08:50:11;3.07;;;2.10;;
7517;SDS011;3800;48.922;9.444;2023-05-07T08:52:39;2.07;;;1.87;;
7517;SDS011;3800;48.922;9.444;2023-05-07T08:55:07;2.37;;;1.60;;
7517;SDS011;3800;48.922;9.444;2023-05-07T08:57:36;2.67;;;1.80;;
7517;SDS011;3800;48.922;9.444;2023-05-07T09:00:06;2.77;;;2.10;;
7517;SDS011;3800;48.922;9.444;2023-05-07T09:02:35;3.47;;;1.80;;
7517;SDS011;3800;48.922;9.444;2023-05-07T09:05:03;3.23;;;2.00;;
7517;SDS011;3800;48.922;9.444;2023-05-07T09:07:31;2.50;;;1.90;;
7517;SDS011;3800;48.922;9.444;2023-05-07T09:10:01;2.57;;;1.90;;
7517;SDS011;3800;48.922;9.444;2023-05-07T09:12:30;3.23;;;2.00;;
7517;SDS011;3800;48.922;9.444;2023-05-07T09:14:59;1.97;;;1.77;;
7517;SDS011;3800;48.922;9.444;2023-05-07T09:17:27;3.57;;;2.00;;
7517;SDS011;3800;48.922;9.444;2023-05-07T09:19:55;2.70;;;1.80;;
7517;SDS011;3800;48.922;9.444;2023-05-07T09:22:23;3.13;;;1.50;;
7517;SDS011;3800;48.922;9.444;2023-05-07T09:24:52;4.37;;;1.50;;
7517;SDS011;3800;48.922;9.444;2023-05-07T09:27:20;1.83;;;1.50;;
7517;SDS011;3800;48.922;9.444;2023-05-07T09:29:49;1.90;;;1.60;;
7517;SDS011;3800;48.922;9.444;2023-05-07T09:32:17;3.63;;;1.83;;
7517;SDS011;3800;48.922;9.444;2023-05-07T09:34:45;2.67;;;1.70;;
7517;SDS011;3800;48.922;9.444;2023-05-07T09:37:13;4.10;;;1.80;;
7517;SDS011;3800;48.922;9.444;2023-05-07T09:39:42;2.80;;;1.80;;
7517;SDS011;3800;48.922;9.444;2023-05-07T09:42:10;2.13;;;1.80;;
7517;SDS011;3800;48.922;9.444;2023-05-07T09:44:38;2.90;;;1.70;;
7517;SDS011;3800;48.922;9.444;2023-05-07T09:47:07;3.60;;;1.80;;
7517;SDS011;3800;48.922;9.444;2023-05-07T09:49:35;1.80;;;1.70;;
7517;SDS011;3800;48.922;9.444;2023-05-07T09:52:04;1.87;;;1.70;;
7517;SDS011;3800;48.922;9.444;2023-05-07T09:54:36;2.53;;;1.80;;
7517;SDS011;3800;48.922;9.444;2023-05-07T09:57:02;2.67;;;1.63;;
7517;SDS011;3800;48.922;9.444;2023-05-07T09:59:31;2.20;;;1.73;;
7517;SDS011;3800;48.922;9.444;2023-05-07T10:01:59;1.90;;;1.70;;
7517;SDS011;3800;48.922;9.444;2023-05-07T10:04:28;1.90;;;1.70;;
7517;SDS011;3800;48.922;9.444;2023-05-07T10:06:56;1.87;;;1.60;;
7517;SDS011;3800;48.922;9.444;2023-05-07T10:09:25;2.83;;;2.00;;
7517;SDS011;3800;48.922;9.444;2023-05-07T10:11:54;2.43;;;1.80;;
7517;SDS011;3800;48.922;9.444;2023-05-07T10:14:22;1.70;;;1.40;;
7517;SDS011;3800;48.922;9.444;2023-05-07T10:16:51;3.90;;;1.77;;
7517;SDS011;3800;48.922;9.444;2023-05-07T10:19:19;2.13;;;1.77;;
7517;SDS011;3800;48.922;9.444;2023-05-07T10:21:51;2.53;;;1.80;;
7517;SDS011;3800;48.922;9.444;2023-05-07T10:24:20;2.43;;;2.03;;
7517;SDS011;3800;48.922;9.444;2023-05-07T10:26:48;2.93;;;1.73;;
7517;SDS011;3800;48.922;9.444;2023-05-07T10:29:18;2.53;;;1.80;;
7517;SDS011;3800;48.922;9.444;2023-05-07T10:35:02;2.47;;;1.93;;
7517;SDS011;3800;48.922;9.444;2023-05-07T10:37:30;3.30;;;1.80;;
7517;SDS011;3800;48.922;9.444;2023-05-07T10:39:58;2.90;;;1.70;;
7517;SDS011;3800;48.922;9.444;2023-05-07T10:42:26;1.90;;;1.60;;
7517;SDS011;3800;48.922;9.444;2023-05-07T10:44:56;2.13;;;1.60;;
7517;SDS011;3800;48.922;9.444;2023-05-07T10:47:24;2.50;;;1.60;;
7517;SDS011;3800;48.922;9.444;2023-05-07T10:53:00;1.97;;;1.77;;
7517;SDS011;3800;48.922;9.444;2023-05-07T10:55:19;3.50;;;1.80;;
7517;SDS011;3800;48.922;9.444;2023-05-07T10:57:47;3.77;;;1.67;;
7517;SDS011;3800;48.922;9.444;2023-05-07T11:00:48;1.77;;;1.63;;
7517;SDS011;3800;48.922;9.444;2023-05-07T11:03:14;2.60;;;1.83;;
7517;SDS011;3800;48.922;9.444;2023-05-07T11:05:42;2.43;;;1.80;;
7517;SDS011;3800;48.922;9.444;2023-05-07T11:08:10;2.27;;;1.60;;
7517;SDS011;3800;48.922;9.444;2023-05-07T11:13:19;2.83;;;1.80;;
7517;SDS011;3800;48.922;9.444;2023-05-07T11:16:02;2.97;;;1.70;;
7517;SDS011;3800;48.922;9.444;2023-05-07T11:18:45;4.13;;;2.00;;
7517;SDS011;3800;48.922;9.444;2023-05-07T11:24:01;1.93;;;1.63;;
7517;SDS011;3800;48.922;9.444;2023-05-07T11:26:32;2.13;;;1.67;;
7517;SDS011;3800;48.922;9.444;2023-05-07T11:28:59;2.23;;;1.80;;
7517;SDS011;3800;48.922;9.444;2023-05-07T11:31:27;4.27;;;1.83;;
7517;SDS011;3800;48.922;9.444;2023-05-07T11:33:55;2.63;;;2.00;;
7517;SDS011;3800;48.922;9.444;2023-05-07T11:36:24;3.73;;;1.90;;
7517;SDS011;3800;48.922;9.444;2023-05-07T11:38:52;2.40;;;1.77;;
7517;SDS011;3800;48.922;9.444;2023-05-07T11:41:20;3.70;;;1.57;;
7517;SDS011;3800;48.922;9.444;2023-05-07T11:43:54;3.67;;;1.87;;
7517;SDS011;3800;48.922;9.444;2023-05-07T11:46:22;2.80;;;1.90;;
7517;SDS011;3800;48.922;9.444;2023-05-07T11:48:50;2.80;;;1.63;;
7517;SDS011;3800;48.922;9.444;2023-05-07T11:51:19;2.90;;;1.80;;
7517;SDS011;3800;48.922;9.444;2023-05-07T11:53:48;2.30;;;2.00;;
7517;SDS011;3800;48.922;9.444;2023-05-07T11:56:16;2.40;;;1.90;;
7517;SDS011;3800;48.922;9.444;2023-05-07T11:58:45;1.90;;;1.70;;
7517;SDS011;3800;48.922;9.444;2023-05-07T12:01:13;2.50;;;1.77;;
7517;SDS011;3800;48.922;9.444;2023-05-07T12:03:41;2.23;;;1.80;;
7517;SDS011;3800;48.922;9.444;2023-05-07T12:06:10;2.23;;;1.90;;
7517;SDS011;3800;48.922;9.444;2023-05-07T12:08:38;3.70;;;1.90;;
7517;SDS011;3800;48.922;9.444;2023-05-07T12:11:07;3.73;;;1.97;;
7517;SDS011;3800;48.922;9.444;2023-05-07T12:13:35;2.10;;;1.60;;
7517;SDS011;3800;48.922;9.444;2023-05-07T12:16:04;2.20;;;1.67;;
7517;SDS011;3800;48.922;9.444;2023-05-07T12:18:34;2.10;;;1.70;;
7517;SDS011;3800;48.922;9.444;2023-05-07T12:21:01;3.10;;;1.67;;
7517;SDS011;3800;48.922;9.444;2023-05-07T12:23:29;2.63;;;1.90;;
7517;SDS011;3800;48.922;9.444;2023-05-07T12:25:58;4.80;;;1.70;;
7517;SDS011;3800;48.922;9.444;2023-05-07T12:28:26;3.87;;;1.77;;
7517;SDS011;3800;48.922;9.444;2023-05-07T12:30:54;4.80;;;1.70;;
7517;SDS011;3800;48.922;9.444;2023-05-07T12:33:24;2.80;;;1.90;;
7517;SDS011;3800;48.922;9.444;2023-05-07T12:35:53;4.07;;;1.87;;
7517;SDS011;3800;48.922;9.444;2023-05-07T12:38:21;2.83;;;1.50;;
7517;SDS011;3800;48.922;9.444;2023-05-07T12:40:50;3.10;;;1.60;;
7517;SDS011;3800;48.922;9.444;2023-05-07T12:43:19;4.67;;;1.80;;
7517;SDS011;3800;48.922;9.444;2023-05-07T12:45:48;4.37;;;2.00;;
7517;SDS011;3800;48.922;9.444;2023-05-07T12:48:17;2.20;;;2.00;;
7517;SDS011;3800;48.922;9.444;2023-05-07T12:50:45;2.10;;;1.70;;
7517;SDS011;3800;48.922;9.444;2023-05-07T12:53:16;3.37;;;2.00;;
7517;SDS011;3800;48.922;9.444;2023-05-07T12:55:45;3.30;;;1.93;;
7517;SDS011;3800;48.922;9.444;2023-05-07T12:58:16;2.27;;;1.80;;
7517;SDS011;3800;48.922;9.444;2023-05-07T13:00:44;2.50;;;1.90;;
7517;SDS011;3800;48.922;9.444;2023-05-07T13:03:12;4.87;;;2.10;;
7517;SDS011;3800;48.922;9.444;2023-05-07T13:05:40;4.37;;;2.10;;
7517;SDS011;3800;48.922;9.444;2023-05-07T13:08:08;5.83;;;2.53;;
7517;SDS011;3800;48.922;9.444;2023-05-07T13:10:36;3.30;;;2.40;;
7517;SDS011;3800;48.922;9.444;2023-05-07T13:13:05;4.37;;;2.97;;
7517;SDS011;3800;48.922;9.444;2023-05-07T13:15:34;3.63;;;2.40;;
7517;SDS011;3800;48.922;9.444;2023-05-07T13:18:02;3.37;;;2.47;;
7517;SDS011;3800;48.922;9.444;2023-05-07T13:20:30;3.33;;;2.37;;
7517;SDS011;3800;48.922;9.444;2023-05-07T13:22:58;4.80;;;2.40;;
7517;SDS011;3800;48.922;9.444;2023-05-07T13:25:27;4.07;;;2.47;;
7517;SDS011;3800;48.922;9.444;2023-05-07T13:27:56;4.57;;;2.70;;
7517;SDS011;3800;48.922;9.444;2023-05-07T13:30:25;3.30;;;2.37;;
7517;SDS011;3800;48.922;9.444;2023-05-07T13:32:55;4.13;;;2.20;;
7517;SDS011;3800;48.922;9.444;2023-05-07T13:35:22;3.80;;;2.60;;
7517;SDS011;3800;48.922;9.444;2023-05-07T13:37:50;3.33;;;2.60;;
7517;SDS011;3800;48.922;9.444;2023-05-07T13:40:19;2.67;;;2.10;;
7517;SDS011;3800;48.922;9.444;2023-05-07T13:42:47;4.20;;;2.30;;
7517;SDS011;3800;48.922;9.444;2023-05-07T13:45:15;3.63;;;1.87;;
7517;SDS011;3800;48.922;9.444;2023-05-07T13:47:43;2.00;;;1.80;;
7517;SDS011;3800;48.922;9.444;2023-05-07T13:50:12;3.80;;;1.80;;
7517;SDS011;3800;48.922;9.444;2023-05-07T13:52:41;4.67;;;1.97;;
7517;SDS011;3800;48.922;9.444;2023-05-07T13:55:09;3.27;;;2.57;;
7517;SDS011;3800;48.922;9.444;2023-05-07T13:57:37;3.37;;;2.27;;
7517;SDS011;3800;48.922;9.444;2023-05-07T14:00:06;2.73;;;1.90;;
7517;SDS011;3800;48.922;9.444;2023-05-07T14:02:35;3.53;;;2.00;;
7517;SDS011;3800;48.922;9.444;2023-05-07T14:05:04;5.83;;;2.10;;
7517;SDS011;3800;48.922;9.444;2023-05-07T14:07:32;3.37;;;2.27;;
7517;SDS011;3800;48.922;9.444;2023-05-07T14:10:01;2.97;;;2.17;;
7517;SDS011;3800;48.922;9.444;2023-05-07T14:12:29;5.30;;;2.10;;
7517;SDS011;3800;48.922;9.444;2023-05-07T14:14:57;3.10;;;1.90;;
7517;SDS011;3800;48.922;9.444;2023-05-07T14:17:25;3.27;;;2.10;;
7517;SDS011;3800;48.922;9.444;2023-05-07T14:19:54;3.73;;;2.07;;
7517;SDS011;3800;48.922;9.444;2023-05-07T14:22:23;4.77;;;2.20;;
7517;SDS011;3800;48.922;9.444;2023-05-07T14:24:51;2.33;;;1.90;;
7517;SDS011;3800;48.922;9.444;2023-05-07T14:27:20;5.40;;;2.10;;
7517;SDS011;3800;48.922;9.444;2023-05-07T14:29:48;3.13;;;2.17;;
7517;SDS011;3800;48.922;9.444;2023-05-07T14:32:17;2.97;;;2.30;;
7517;SDS011;3800;48.922;9.444;2023-05-07T14:34:45;2.50;;;2.27;;
7517;SDS011;3800;48.922;9.444;2023-05-07T14:37:13;6.00;;;2.63;;
7517;SDS011;3800;48.922;9.444;2023-05-07T14:39:41;4.13;;;2.57;;
7517;SDS011;3800;48.922;9.444;2023-05-07T14:42:10;3.33;;;2.63;;
7517;SDS011;3800;48.922;9.444;2023-05-07T14:44:39;3.13;;;2.63;;
7517;SDS011;3800;48.922;9.444;2023-05-07T14:47:07;4.33;;;3.10;;
7517;SDS011;3800;48.922;9.444;2023-05-07T14:49:35;5.23;;;2.63;;
7517;SDS011;3800;48.922;9.444;2023-05-07T14:52:04;4.17;;;2.47;;
7517;SDS011;3800;48.922;9.444;2023-05-07T14:54:33;3.30;;;1.70;;
7517;SDS011;3800;48.922;9.444;2023-05-07T14:57:02;2.77;;;1.57;;
7517;SDS011;3800;48.922;9.444;2023-05-07T14:59:31;1.70;;;1.30;;
7517;SDS011;3800;48.922;9.444;2023-05-07T15:01:59;1.90;;;1.60;;
7517;SDS011;3800;48.922;9.444;2023-05-07T15:04:27;3.83;;;1.80;;
7517;SDS011;3800;48.922;9.444;2023-05-07T15:06:55;2.70;;;1.70;;
7517;SDS011;3800;48.922;9.444;2023-05-07T15:09:24;2.80;;;1.90;;
7517;SDS011;3800;48.922;9.444;2023-05-07T15:11:52;3.60;;;1.93;;
7517;SDS011;3800;48.922;9.444;2023-05-07T15:14:20;2.67;;;1.87;;
7517;SDS011;3800;48.922;9.444;2023-05-07T15:16:48;2.27;;;1.60;;
7517;SDS011;3800;48.922;9.444;2023-05-07T15:19:17;3.03;;;2.10;;
7517;SDS011;3800;48.922;9.444;2023-05-07T15:21:46;4.27;;;2.03;;
7517;SDS011;3800;48.922;9.444;2023-05-07T15:24:14;4.60;;;1.90;;
7517;SDS011;3800;48.922;9.444;2023-05-07T15:26:42;1.90;;;1.80;;
7517;SDS011;3800;48.922;9.444;2023-05-07T15:29:11;4.37;;;2.03;;
7517;SDS011;3800;48.922;9.444;2023-05-07T15:31:39;2.47;;;2.07;;
7517;SDS011;3800;48.922;9.444;2023-05-07T15:34:07;2.73;;;2.00;;